createdAt,value
2018-12-26T00:00:02.820Z,6.1
2018-12-26T00:05:02.647Z,6.1
2018-12-26T00:10:05.433Z,6.1
2018-12-26T00:15:05.496Z,6.1
2018-12-26T00:20:05.324Z,6.1
2018-12-26T00:25:02.850Z,6.1
2018-12-26T00:30:05.440Z,6.1
2018-12-26T00:35:05.326Z,6.2
2018-12-26T00:40:15.313Z,6.1
2018-12-26T00:45:02.596Z,6.1
2018-12-26T00:50:02.506Z,6.1
2018-12-26T00:55:04.896Z,6.1
2018-12-26T01:00:02.848Z,6.1
2018-12-26T01:05:10.312Z,6.1
2018-12-26T01:10:02.590Z,6.1
2018-12-26T01:15:15.141Z,6.1
2018-12-26T01:20:03.037Z,6.1
2018-12-26T01:25:02.930Z,6.1
2018-12-26T01:30:02.518Z,6
2018-12-26T01:35:07.478Z,6.1
2018-12-26T01:40:02.805Z,6
2018-12-26T01:45:02.746Z,6
2018-12-26T01:50:05.154Z,6
2018-12-26T01:55:10.325Z,6
2018-12-26T02:00:04.872Z,6
2018-12-26T02:05:08.291Z,6
2018-12-26T02:10:12.784Z,6
2018-12-26T02:15:20.270Z,6
2018-12-26T02:20:05.734Z,6
2018-12-26T02:25:08.193Z,6
2018-12-26T02:30:05.719Z,6
2018-12-26T02:35:10.593Z,6
2018-12-26T02:40:02.908Z,6
2018-12-26T02:45:05.295Z,6
2018-12-26T02:50:10.776Z,6
2018-12-26T02:55:05.626Z,6
2018-12-26T03:00:02.528Z,6
2018-12-26T03:05:07.577Z,6
2018-12-26T03:10:02.885Z,6
2018-12-26T03:15:05.344Z,6
2018-12-26T03:20:05.786Z,6.1
2018-12-26T03:25:20.862Z,6
2018-12-26T03:30:02.678Z,6
2018-12-26T03:35:02.613Z,6
2018-12-26T03:40:03.013Z,6
2018-12-26T03:45:07.992Z,6
2018-12-26T03:50:05.441Z,6
2018-12-26T03:55:05.281Z,6
2018-12-26T04:00:08.298Z,6
2018-12-26T04:05:03.105Z,6
2018-12-26T04:10:02.502Z,5.9
2018-12-26T04:15:02.345Z,5.9
2018-12-26T04:20:02.295Z,5.8
2018-12-26T04:25:05.720Z,5.7
2018-12-26T04:30:10.183Z,5.6
2018-12-26T04:35:02.477Z,5.6
2018-12-26T04:40:10.450Z,5.6
2018-12-26T04:45:02.789Z,5.5
2018-12-26T04:50:02.684Z,5.6
2018-12-26T04:55:07.646Z,5.5
2018-12-26T05:00:05.062Z,5.5
2018-12-26T05:05:02.417Z,5.5
2018-12-26T05:10:05.377Z,5.5
2018-12-26T05:15:02.678Z,5.5
2018-12-26T05:20:07.673Z,5.4
2018-12-26T05:25:02.517Z,5.4
2018-12-26T05:30:02.513Z,5.4
2018-12-26T05:35:05.005Z,5.4
2018-12-26T05:40:02.369Z,5.4
2018-12-26T05:45:10.836Z,5.4
2018-12-26T05:50:07.825Z,5.4
2018-12-26T05:55:02.736Z,5.4
2018-12-26T06:00:02.652Z,5.4
2018-12-26T06:05:10.200Z,5.3
2018-12-26T06:10:02.601Z,5.4
2018-12-26T06:15:07.590Z,5.4
2018-12-26T06:20:02.614Z,5.4
2018-12-26T06:25:05.198Z,5.4
2018-12-26T06:30:03.223Z,5.4
2018-12-26T06:35:03.093Z,5.4
2018-12-26T06:40:02.420Z,5.4
2018-12-26T06:45:04.891Z,5.4
2018-12-26T06:50:02.792Z,5.4
2018-12-26T06:55:05.304Z,5.4
2018-12-26T07:00:03.234Z,5.4
2018-12-26T07:05:05.580Z,5.4
2018-12-26T07:10:02.923Z,5.4
2018-12-26T07:15:02.807Z,5.4
2018-12-26T07:20:02.855Z,5.3
2018-12-26T07:25:10.464Z,5.3
2018-12-26T07:30:04.917Z,5.3
2018-12-26T07:35:03.223Z,5.3
2018-12-26T07:40:02.561Z,5.3
2018-12-26T07:45:02.515Z,5.2
2018-12-26T07:50:04.932Z,5.2
2018-12-26T07:55:02.284Z,5.2
2018-12-26T08:00:05.724Z,5.2
2018-12-26T08:05:10.729Z,5.1
2018-12-26T08:10:13.371Z,5.1
2018-12-26T08:15:10.413Z,5.1
2018-12-26T08:20:07.911Z,5
2018-12-26T08:25:02.866Z,5
2018-12-26T08:30:02.405Z,5
2018-12-26T08:35:09.869Z,5
2018-12-26T08:40:05.788Z,5
2018-12-26T08:45:03.212Z,5
2018-12-26T08:50:03.114Z,5
2018-12-26T08:55:05.506Z,5
2018-12-26T09:00:02.364Z,4.9
2018-12-26T09:05:05.787Z,5
2018-12-26T09:10:05.677Z,5
2018-12-26T09:15:02.296Z,5
2018-12-26T09:20:03.311Z,4.9
2018-12-26T09:25:05.686Z,4.9
2018-12-26T09:30:07.595Z,4.9
2018-12-26T09:35:25.177Z,4.9
2018-12-26T09:40:02.474Z,4.9
2018-12-26T09:45:02.495Z,4.9
2018-12-26T09:50:02.410Z,4.9
2018-12-26T09:55:04.873Z,4.9
2018-12-26T10:00:05.302Z,4.9
2018-12-26T10:05:12.726Z,4.9
2018-12-26T10:10:03.043Z,4.9
2018-12-26T10:15:05.604Z,4.9
2018-12-26T10:20:05.095Z,4.9
2018-12-26T10:25:02.472Z,4.8
2018-12-26T10:30:04.869Z,4.8
2018-12-26T10:35:03.227Z,4.8
2018-12-26T10:40:02.506Z,4.9
2018-12-26T10:45:02.424Z,4.9
2018-12-26T10:50:07.355Z,4.9
2018-12-26T10:55:05.725Z,5
2018-12-26T11:00:12.663Z,5
2018-12-26T11:05:02.487Z,5
2018-12-26T11:10:02.855Z,5.1
2018-12-26T11:15:02.833Z,5.1
2018-12-26T11:20:05.328Z,5.1
2018-12-26T11:25:02.656Z,5.1
2018-12-26T11:30:05.021Z,5.2
2018-12-26T11:35:05.056Z,5.2
2018-12-26T11:40:02.383Z,5.1
2018-12-26T11:45:07.421Z,5.2
2018-12-26T11:50:04.865Z,5.1
2018-12-26T11:55:05.784Z,5.1
2018-12-26T12:00:02.663Z,5.1
2018-12-26T12:05:10.579Z,5.2
2018-12-26T12:10:10.554Z,5.2
2018-12-26T12:15:02.810Z,5.2
2018-12-26T12:20:02.820Z,5.2
2018-12-26T12:25:02.628Z,5.2
2018-12-26T12:30:02.503Z,5.2
2018-12-26T12:35:04.949Z,5.3
2018-12-26T12:40:04.825Z,5.3
2018-12-26T12:45:03.223Z,5.3
2018-12-26T12:50:10.693Z,5.3
2018-12-26T12:55:10.522Z,5.4
2018-12-26T13:00:07.538Z,5.4
2018-12-26T13:05:04.941Z,5.4
2018-12-26T13:10:02.294Z,5.4
2018-12-26T13:15:03.152Z,5.4
2018-12-26T13:20:05.635Z,5.5
2018-12-26T13:25:02.965Z,5.5
2018-12-26T13:30:05.463Z,5.5
2018-12-26T13:35:02.789Z,5.5
2018-12-26T13:40:02.294Z,5.6
2018-12-26T13:45:05.759Z,5.6
2018-12-26T13:50:02.628Z,5.6
2018-12-26T13:55:02.574Z,5.7
2018-12-26T14:00:02.920Z,5.7
2018-12-26T14:05:02.416Z,5.7
2018-12-26T14:10:02.758Z,5.8
2018-12-26T14:15:05.140Z,5.8
2018-12-26T14:20:03.099Z,5.8
2018-12-26T14:25:10.644Z,5.9
2018-12-26T14:30:11.046Z,5.9
2018-12-26T14:35:04.953Z,5.9
2018-12-26T14:40:10.070Z,5.9
2018-12-26T14:45:04.882Z,6
2018-12-26T14:50:05.284Z,6
2018-12-26T14:55:10.219Z,6
2018-12-26T15:00:05.696Z,6
2018-12-26T15:05:02.984Z,6
2018-12-26T15:10:15.081Z,5.9
2018-12-26T15:15:03.247Z,5.9
2018-12-26T15:20:08.218Z,5.9
2018-12-26T15:25:03.015Z,6
2018-12-26T15:30:02.885Z,6
2018-12-26T15:35:03.489Z,6
2018-12-26T15:40:02.899Z,6
2018-12-26T15:45:05.376Z,6
2018-12-26T15:50:03.224Z,6
2018-12-26T15:55:03.177Z,6
2018-12-26T16:00:18.207Z,6
2018-12-26T16:05:03.025Z,6
2018-12-26T16:10:02.397Z,6.1
2018-12-26T16:15:02.427Z,6.1
2018-12-26T16:20:04.913Z,6.1
2018-12-26T16:25:03.218Z,6.1
2018-12-26T16:30:13.261Z,6.1
2018-12-26T16:35:05.513Z,6.2
2018-12-26T16:40:05.506Z,6.2
2018-12-26T16:45:05.445Z,6.1
2018-12-26T16:50:07.385Z,6.2
2018-12-26T16:55:08.178Z,6.2
2018-12-26T17:00:03.061Z,6.2
2018-12-26T17:05:10.451Z,6.2
2018-12-26T17:10:02.748Z,6.2
2018-12-26T17:15:02.706Z,6.2
2018-12-26T17:20:10.309Z,6.1
2018-12-26T17:25:10.172Z,6.1
2018-12-26T17:30:08.287Z,6.1
2018-12-26T17:35:05.698Z,6.1
2018-12-26T17:40:05.696Z,6.1
2018-12-26T17:45:03.033Z,6.1
2018-12-26T17:50:10.539Z,6
2018-12-26T17:55:05.321Z,6.1
2018-12-26T18:00:03.217Z,6
2018-12-26T18:05:03.260Z,6
2018-12-26T18:10:02.612Z,6.1
2018-12-26T18:15:10.162Z,6
2018-12-26T18:20:08.180Z,6
2018-12-26T18:25:05.653Z,6
2018-12-26T18:30:07.614Z,6
2018-12-26T18:35:04.972Z,6
2018-12-26T18:40:02.344Z,6
2018-12-26T18:45:05.776Z,6.1
2018-12-26T18:50:02.676Z,6.1
2018-12-26T18:55:02.566Z,6.1
2018-12-26T19:00:22.738Z,6.1
2018-12-26T19:05:02.552Z,2.9
2018-12-26T19:10:02.674Z,6.1
2018-12-26T19:15:02.626Z,6.1
2018-12-26T19:20:10.189Z,6.2
2018-12-26T19:25:05.003Z,6.2
2018-12-26T19:30:02.866Z,6.2
2018-12-26T19:35:05.334Z,6.3
2018-12-26T19:40:02.667Z,6.2
2018-12-26T19:45:30.415Z,6.3
2018-12-26T19:50:04.969Z,6.3
2018-12-26T19:55:05.784Z,6.4
2018-12-26T20:00:02.747Z,6.4
2018-12-26T20:05:07.756Z,6.4
2018-12-26T20:10:03.060Z,6.4
2018-12-26T20:15:03.037Z,6.5
2018-12-26T20:20:05.842Z,6.5
2018-12-26T20:25:05.712Z,6.5
2018-12-26T20:30:05.777Z,6.5
2018-12-26T20:35:08.213Z,6.4
2018-12-26T20:40:07.616Z,6.5
2018-12-26T20:45:02.507Z,6.4
2018-12-26T20:50:02.397Z,6.5
2018-12-26T20:55:02.348Z,6.5
2018-12-26T21:00:10.849Z,6.5
2018-12-26T21:05:05.613Z,6.6
2018-12-26T21:10:02.928Z,6.5
2018-12-26T21:15:02.776Z,6.6
2018-12-26T21:20:07.822Z,6.6
2018-12-26T21:25:02.731Z,6.6
2018-12-26T21:30:22.873Z,6.6
2018-12-26T21:35:07.721Z,6.6
2018-12-26T21:40:03.086Z,6.6
2018-12-26T21:45:03.001Z,6.6
2018-12-26T21:50:02.895Z,6.6
2018-12-26T21:55:05.322Z,6.6
2018-12-26T22:00:03.188Z,6.6
2018-12-26T22:05:05.376Z,6.6
2018-12-26T22:10:17.899Z,6.5
2018-12-26T22:15:05.156Z,6.5
2018-12-26T22:20:03.129Z,6.5
2018-12-26T22:25:08.053Z,6.5
2018-12-26T22:30:03.015Z,6.5
2018-12-26T22:35:02.887Z,6.5
2018-12-26T22:40:03.237Z,6.5
2018-12-26T22:45:05.680Z,6.5
2018-12-26T22:50:02.601Z,6.5
2018-12-26T22:55:02.505Z,6.5
2018-12-26T23:00:02.396Z,6.4
2018-12-26T23:05:02.305Z,6.4
2018-12-26T23:10:02.626Z,6.4
2018-12-26T23:15:02.508Z,6.4
2018-12-26T23:20:10.088Z,6.3
2018-12-26T23:25:04.969Z,6.3
2018-12-26T23:30:02.857Z,6.2
2018-12-26T23:35:02.713Z,6.3
2018-12-26T23:40:03.087Z,6.2
2018-12-26T23:45:03.097Z,6.2
2018-12-26T23:50:05.388Z,6.3
2018-12-26T23:55:10.319Z,6.2
